createdAt,value
2019-01-22T00:00:41.165Z,61.80
2019-01-22T00:01:41.115Z,61.61
2019-01-22T00:02:41.070Z,61.52
2019-01-22T00:03:41.024Z,61.80
2019-01-22T00:04:40.979Z,62.18
2019-01-22T00:05:40.935Z,62.56
2019-01-22T00:06:40.883Z,61.80
2019-01-22T00:07:40.842Z,60.86
2019-01-22T00:08:40.796Z,60.68
2019-01-22T00:09:40.751Z,60.49
2019-01-22T00:10:40.703Z,60.30
2019-01-22T00:11:40.658Z,59.64
2019-01-22T00:12:40.606Z,59.54
2019-01-22T00:13:40.557Z,59.26
2019-01-22T00:14:40.516Z,59.07
2019-01-22T00:15:40.467Z,59.83
2019-01-22T00:16:40.420Z,60.21
2019-01-22T00:17:40.371Z,59.83
2019-01-22T00:18:40.324Z,60.49
2019-01-22T00:19:40.283Z,60.77
2019-01-22T00:20:40.234Z,60.30
2019-01-22T00:21:40.192Z,60.21
2019-01-22T00:22:40.143Z,59.92
2019-01-22T00:23:40.101Z,59.83
2019-01-22T00:24:40.050Z,59.83
2019-01-22T00:25:39.997Z,59.54
2019-01-22T00:26:39.954Z,59.54
2019-01-22T00:27:39.908Z,59.45
2019-01-22T00:28:39.865Z,59.64
2019-01-22T00:29:39.818Z,59.26
2019-01-22T00:30:39.764Z,60.02
2019-01-22T00:31:39.719Z,59.92
2019-01-22T00:32:39.676Z,59.92
2019-01-22T00:33:39.655Z,59.73
2019-01-22T00:34:39.585Z,59.45
2019-01-22T00:35:39.534Z,59.92
2019-01-22T00:36:39.486Z,60.39
2019-01-22T00:37:39.439Z,60.96
2019-01-22T00:38:39.391Z,61.05
2019-01-22T00:39:39.346Z,60.77
2019-01-22T00:40:39.302Z,60.96
2019-01-22T00:41:39.262Z,60.77
2019-01-22T00:42:39.210Z,61.61
2019-01-22T00:43:39.162Z,61.33
2019-01-22T00:44:39.113Z,61.61
2019-01-22T00:45:39.068Z,61.61
2019-01-22T00:46:39.025Z,61.52
2019-01-22T00:47:38.977Z,61.90
2019-01-22T00:48:38.929Z,61.61
2019-01-22T00:49:38.879Z,61.80
2019-01-22T00:50:38.834Z,61.80
2019-01-22T00:51:38.789Z,61.33
2019-01-22T00:52:38.742Z,61.43
2019-01-22T00:53:38.699Z,61.43
2019-01-22T00:54:38.651Z,61.52
2019-01-22T00:55:38.603Z,61.71
2019-01-22T00:56:38.557Z,62.28
2019-01-22T00:57:38.510Z,61.80
2019-01-22T00:58:38.459Z,62.47
2019-01-22T00:59:38.419Z,62.37
2019-01-22T01:00:38.372Z,62.28
2019-01-22T01:01:38.326Z,62.37
2019-01-22T01:02:38.271Z,61.80
2019-01-22T01:03:38.228Z,61.90
2019-01-22T01:04:38.183Z,62.18
2019-01-22T01:05:38.138Z,62.37
2019-01-22T01:06:38.092Z,61.99
2019-01-22T01:07:38.043Z,62.28
2019-01-22T01:08:37.995Z,62.66
2019-01-22T01:09:37.946Z,62.47
2019-01-22T01:10:37.901Z,63.89
2019-01-22T01:11:37.861Z,64.45
2019-01-22T01:12:37.810Z,64.07
2019-01-22T01:13:37.806Z,64.17
2019-01-22T01:14:37.719Z,64.45
2019-01-22T01:15:37.670Z,64.64
2019-01-22T01:16:37.625Z,65.96
2019-01-22T01:17:37.574Z,65.96
2019-01-22T01:18:37.535Z,65.96
2019-01-22T01:19:37.482Z,66.05
2019-01-22T01:20:37.441Z,66.05
2019-01-22T01:21:37.387Z,65.20
2019-01-22T01:22:37.344Z,65.11
2019-01-22T01:23:37.312Z,65.11
2019-01-22T01:24:37.256Z,65.11
2019-01-22T01:25:37.207Z,65.11
2019-01-22T01:26:37.159Z,66.52
2019-01-22T01:27:37.112Z,66.24
2019-01-22T01:28:37.062Z,65.39
2019-01-22T01:29:37.028Z,65.11
2019-01-22T01:30:36.970Z,65.20
2019-01-22T01:31:36.923Z,66.34
2019-01-22T01:32:36.908Z,66.05
2019-01-22T01:33:36.840Z,66.90
2019-01-22T01:34:36.780Z,67.57
2019-01-22T01:35:36.736Z,67.47
2019-01-22T01:36:37.688Z,67.66
2019-01-22T01:37:36.647Z,68.04
2019-01-22T01:38:36.623Z,68.70
2019-01-22T01:39:36.551Z,68.79
2019-01-22T01:40:36.504Z,69.45
2019-01-22T01:41:36.454Z,70.68
2019-01-22T01:42:36.441Z,71.53
2019-01-22T01:43:36.369Z,71.72
2019-01-22T01:44:36.320Z,71.62
2019-01-22T01:45:36.274Z,71.15
2019-01-22T01:46:36.226Z,71.62
2019-01-22T01:47:36.180Z,72.94
2019-01-22T01:48:36.131Z,73.51
2019-01-22T01:49:36.080Z,73.79
2019-01-22T01:50:36.040Z,74.45
2019-01-22T01:51:35.992Z,74.36
2019-01-22T01:52:35.943Z,73.98
2019-01-22T01:53:35.896Z,73.98
2019-01-22T01:54:35.850Z,73.13
2019-01-22T01:55:35.803Z,72.94
2019-01-22T01:56:35.757Z,73.41
2019-01-22T01:57:35.714Z,73.79
2019-01-22T01:58:35.669Z,73.88
2019-01-22T01:59:35.620Z,73.88
2019-01-22T02:00:35.570Z,73.51
2019-01-22T02:01:35.521Z,73.32
2019-01-22T02:02:35.476Z,74.07
2019-01-22T02:03:35.435Z,74.55
2019-01-22T02:04:35.386Z,74.92
2019-01-22T02:05:35.340Z,74.55
2019-01-22T02:06:35.287Z,74.26
2019-01-22T02:07:35.243Z,74.36
2019-01-22T02:08:35.198Z,74.36
2019-01-22T02:09:35.158Z,73.79
2019-01-22T02:10:35.107Z,73.51
2019-01-22T02:11:35.062Z,73.69
2019-01-22T02:12:35.011Z,73.03
2019-01-22T02:13:34.972Z,73.32
2019-01-22T02:14:34.914Z,73.13
2019-01-22T02:15:34.873Z,73.13
2019-01-22T02:16:34.827Z,72.38
2019-01-22T02:17:34.786Z,71.72
2019-01-22T02:18:34.738Z,71.15
2019-01-22T02:19:34.685Z,71.62
2019-01-22T02:20:34.638Z,71.15
2019-01-22T02:21:34.589Z,70.96
2019-01-22T02:22:34.547Z,70.30
2019-01-22T02:23:34.500Z,70.39
2019-01-22T02:24:34.451Z,69.64
2019-01-22T02:25:34.403Z,68.88
2019-01-22T02:26:34.356Z,67.66
2019-01-22T02:27:34.311Z,67.19
2019-01-22T02:28:34.270Z,66.81
2019-01-22T02:29:34.223Z,66.81
2019-01-22T02:30:34.175Z,66.71
2019-01-22T02:31:34.126Z,66.15
2019-01-22T02:32:34.078Z,66.34
2019-01-22T02:33:34.030Z,65.58
2019-01-22T02:34:33.983Z,65.30
2019-01-22T02:35:33.938Z,64.54
2019-01-22T02:36:33.895Z,64.26
2019-01-22T02:37:33.892Z,64.26
2019-01-22T02:38:33.799Z,64.83
2019-01-22T02:39:33.758Z,64.45
2019-01-22T02:40:33.714Z,63.98
2019-01-22T02:41:33.669Z,63.51
2019-01-22T02:42:33.615Z,63.41
2019-01-22T02:43:33.569Z,63.22
2019-01-22T02:44:33.521Z,63.89
2019-01-22T02:45:33.469Z,63.32
2019-01-22T02:46:33.445Z,63.51
2019-01-22T02:47:33.378Z,61.90
2019-01-22T02:48:33.337Z,61.33
2019-01-22T02:49:33.288Z,61.52
2019-01-22T02:50:33.242Z,60.02
2019-01-22T02:51:33.196Z,59.54
2019-01-22T02:52:33.145Z,60.11
2019-01-22T02:53:38.724Z,59.45
2019-01-22T02:54:33.058Z,58.12
2019-01-22T02:55:33.008Z,57.56
2019-01-22T02:56:32.959Z,55.11
2019-01-22T02:57:32.928Z,54.92
2019-01-22T02:58:32.863Z,54.82
2019-01-22T02:59:32.818Z,55.20
2019-01-22T03:00:32.776Z,54.35
2019-01-22T03:01:32.733Z,54.26
2019-01-22T03:02:32.681Z,53.59
2019-01-22T03:03:32.637Z,53.88
2019-01-22T03:04:32.585Z,53.59
2019-01-22T03:05:32.538Z,52.84
2019-01-22T03:06:32.489Z,52.28
2019-01-22T03:07:32.445Z,52.37
2019-01-22T03:08:32.400Z,52.28
2019-01-22T03:09:32.356Z,52.09
2019-01-22T03:10:32.303Z,52.18
2019-01-22T03:11:32.259Z,52.18
2019-01-22T03:12:32.215Z,53.22
2019-01-22T03:13:32.170Z,55.20
2019-01-22T03:14:32.122Z,55.67
2019-01-22T03:15:32.096Z,56.15
2019-01-22T03:16:32.027Z,56.52
2019-01-22T03:17:31.977Z,56.52
2019-01-22T03:18:31.934Z,56.15
2019-01-22T03:19:31.886Z,54.16
2019-01-22T03:20:31.845Z,54.26
2019-01-22T03:21:31.797Z,53.88
2019-01-22T03:22:31.750Z,53.78
2019-01-22T03:23:31.700Z,54.54
2019-01-22T03:24:31.655Z,53.78
2019-01-22T03:25:31.604Z,53.31
2019-01-22T03:26:31.564Z,52.94
2019-01-22T03:27:31.517Z,53.78
2019-01-22T03:28:31.468Z,53.13
2019-01-22T03:29:31.419Z,51.92
2019-01-22T03:30:31.379Z,51.43
2019-01-22T03:31:31.327Z,52.09
2019-01-22T03:32:31.285Z,51.99
2019-01-22T03:33:31.238Z,52.40
2019-01-22T03:34:31.192Z,53.15
2019-01-22T03:35:31.143Z,53.63
2019-01-22T03:36:31.094Z,54.38
2019-01-22T03:37:31.050Z,54.85
2019-01-22T03:38:30.999Z,54.75
2019-01-22T03:39:30.957Z,55.42
2019-01-22T03:40:30.910Z,56.15
2019-01-22T03:41:30.878Z,55.77
2019-01-22T03:42:30.812Z,55.98
2019-01-22T03:43:30.769Z,56.27
2019-01-22T03:44:30.724Z,56.74
2019-01-22T03:45:30.686Z,57.18
2019-01-22T03:46:30.634Z,57.75
2019-01-22T03:47:30.588Z,57.65
2019-01-22T03:48:30.536Z,58.03
2019-01-22T03:49:30.489Z,58.50
2019-01-22T03:50:30.441Z,59.38
2019-01-22T04:06:36.413Z,62.28
2019-01-22T04:07:36.340Z,62.28
2019-01-22T04:08:36.285Z,61.52
2019-01-22T04:09:36.233Z,60.68
2019-01-22T04:10:36.181Z,60.86
2019-01-22T04:11:36.131Z,61.15
2019-01-22T04:12:36.090Z,60.49
2019-01-22T04:13:36.040Z,60.58
2019-01-22T04:14:35.991Z,61.43
2019-01-22T04:15:35.936Z,62.37
2019-01-22T04:16:35.886Z,61.99
2019-01-22T04:17:35.846Z,62.18
2019-01-22T04:18:35.802Z,62.66
2019-01-22T04:19:35.753Z,63.41
2019-01-22T04:20:35.707Z,63.13
2019-01-22T04:21:35.655Z,64.54
2019-01-22T04:22:35.608Z,67.47
2019-01-22T04:23:35.556Z,70.68
2019-01-22T04:24:35.510Z,70.96
2019-01-22T04:25:35.466Z,70.96
2019-01-22T04:26:35.420Z,70.77
2019-01-22T04:27:35.376Z,69.83
2019-01-22T04:28:35.323Z,69.83
2019-01-22T04:29:35.278Z,68.79
2019-01-22T04:30:35.237Z,69.07
2019-01-22T04:31:35.189Z,69.17
2019-01-22T04:32:35.143Z,68.88
2019-01-22T04:33:35.092Z,68.88
2019-01-22T04:34:35.043Z,68.88
2019-01-22T04:35:34.999Z,68.88
2019-01-22T04:36:34.945Z,68.51
2019-01-22T04:37:34.903Z,68.23
2019-01-22T04:38:34.860Z,68.79
2019-01-22T04:39:34.814Z,70.30
2019-01-22T04:40:34.768Z,70.20
2019-01-22T04:41:34.720Z,70.72
2019-01-22T04:42:34.671Z,70.24
2019-01-22T04:43:34.620Z,70.15
2019-01-22T04:44:34.580Z,70.30
2019-01-22T04:45:34.532Z,69.64
2019-01-22T04:46:34.484Z,69.54
2019-01-22T04:47:34.435Z,69.26
2019-01-22T04:48:34.388Z,69.17
2019-01-22T04:49:34.343Z,68.35
2019-01-22T04:50:34.304Z,68.04
2019-01-22T04:51:34.254Z,67.38
2019-01-22T04:52:34.210Z,66.81
2019-01-22T04:53:34.163Z,66.24
2019-01-22T04:54:34.113Z,66.43
2019-01-22T04:55:34.066Z,65.39
2019-01-22T04:56:34.026Z,65.11
2019-01-22T04:57:33.972Z,64.36
2019-01-22T04:58:33.927Z,63.98
2019-01-22T04:59:33.882Z,62.66
2019-01-22T05:00:33.831Z,62.28
2019-01-22T05:01:33.787Z,61.43
2019-01-22T05:02:33.742Z,60.58
2019-01-22T05:03:33.697Z,60.86
2019-01-22T05:04:33.650Z,60.21
2019-01-22T05:05:33.602Z,59.17
2019-01-22T05:06:33.553Z,59.45
2019-01-22T05:07:33.504Z,59.26
2019-01-22T05:08:33.462Z,58.88
2019-01-22T05:09:33.416Z,58.69
2019-01-22T05:10:33.370Z,58.79
2019-01-22T05:11:33.326Z,58.60
2019-01-22T05:12:33.280Z,58.69
2019-01-22T05:13:33.233Z,58.79
2019-01-22T05:14:33.181Z,59.07
2019-01-22T05:15:33.134Z,59.73
2019-01-22T05:16:33.094Z,60.68
2019-01-22T05:17:33.044Z,63.70
2019-01-22T05:18:33.005Z,64.39
2019-01-22T05:19:32.946Z,65.30
2019-01-22T05:20:32.899Z,66.09
2019-01-22T05:21:32.856Z,65.23
2019-01-22T05:22:32.814Z,63.54
2019-01-22T05:23:32.765Z,67.13
2019-01-22T05:24:32.732Z,67.88
2019-01-22T05:25:32.674Z,68.35
2019-01-22T05:26:32.630Z,65.33
2019-01-22T05:27:32.573Z,66.09
2019-01-22T05:28:32.530Z,66.28
2019-01-22T05:29:32.484Z,64.39
2019-01-22T05:30:32.469Z,62.69
2019-01-22T05:31:32.406Z,65.42
2019-01-22T05:32:32.348Z,64.11
2019-01-22T05:33:32.971Z,59.95
2019-01-22T05:34:32.259Z,61.65
2019-01-22T05:35:32.210Z,62.50
2019-01-22T05:36:32.172Z,60.80
2019-01-22T05:37:32.138Z,59.86
2019-01-22T05:38:32.068Z,61.74
2019-01-22T05:39:32.017Z,59.10
2019-01-22T05:40:32.080Z,63.63
2019-01-22T05:41:31.925Z,63.63
2019-01-22T05:42:31.884Z,56.08
2019-01-22T05:43:31.841Z,58.91
2019-01-22T05:44:31.793Z,61.65
2019-01-22T05:45:31.745Z,58.72
2019-01-22T05:46:31.695Z,56.46
2019-01-22T05:47:31.646Z,58.91
2019-01-22T05:48:31.607Z,59.76
2019-01-22T05:49:31.554Z,56.65
2019-01-22T05:50:31.510Z,57.12
2019-01-22T05:51:31.466Z,55.70
2019-01-22T05:52:31.430Z,53.72
2019-01-22T05:53:31.371Z,53.81
2019-01-22T05:54:31.326Z,53.44
2019-01-22T05:55:31.283Z,52.11
2019-01-22T05:56:31.234Z,53.91
2019-01-22T05:57:31.186Z,54.07
2019-01-22T05:58:31.140Z,53.34
2019-01-22T05:59:31.093Z,53.63
2019-01-22T06:00:31.042Z,53.81
2019-01-22T06:01:31.007Z,53.06
2019-01-22T06:02:30.972Z,52.78
2019-01-22T06:03:30.912Z,52.11
2019-01-22T06:04:30.857Z,51.90
2019-01-22T06:05:30.812Z,52.40
2019-01-22T06:06:30.769Z,51.92
2019-01-22T06:07:30.726Z,51.36
2019-01-22T06:08:30.680Z,50.32
2019-01-22T06:09:30.647Z,49.85
2019-01-22T06:10:30.583Z,49.91
2019-01-22T06:11:30.532Z,49.63
2019-01-22T06:12:30.494Z,50.10
2019-01-22T06:13:30.440Z,50.95
2019-01-22T06:14:30.401Z,51.14
2019-01-22T06:15:30.351Z,51.81
2019-01-22T06:16:30.303Z,51.81
2019-01-22T06:17:30.266Z,52.09
2019-01-22T06:18:30.208Z,52.49
2019-01-22T06:19:30.163Z,52.75
2019-01-22T06:20:30.133Z,53.13
2019-01-22T06:21:30.074Z,53.78
2019-01-22T06:22:30.022Z,53.59
2019-01-22T06:23:29.980Z,53.78
2019-01-22T06:24:33.312Z,53.69
2019-01-22T06:25:29.889Z,53.69
2019-01-22T06:26:29.841Z,53.78
2019-01-22T06:27:29.794Z,53.78
2019-01-22T06:28:29.760Z,53.59
2019-01-22T06:29:29.703Z,53.41
2019-01-22T06:30:29.669Z,53.69
2019-01-22T06:31:29.611Z,53.88
2019-01-22T06:32:29.567Z,53.78
2019-01-22T06:33:29.514Z,54.44
2019-01-22T06:34:29.478Z,55.01
2019-01-22T06:35:29.423Z,55.01
2019-01-22T06:36:29.375Z,55.11
2019-01-22T06:37:29.328Z,54.82
2019-01-22T06:38:29.330Z,55.01
2019-01-22T06:39:29.237Z,55.30
2019-01-22T06:40:29.190Z,55.20
2019-01-22T06:41:29.145Z,55.96
2019-01-22T06:42:29.096Z,55.77
2019-01-22T06:43:29.048Z,56.05
2019-01-22T06:44:29.004Z,55.86
2019-01-22T06:45:29.019Z,55.67
2019-01-22T06:46:28.914Z,55.30
2019-01-22T06:47:28.865Z,54.07
2019-01-22T06:48:28.821Z,54.73
2019-01-22T06:49:28.775Z,55.96
2019-01-22T06:50:28.722Z,55.58
2019-01-22T06:51:28.677Z,55.96
2019-01-22T06:52:28.636Z,58.69
2019-01-22T06:53:28.587Z,59.35
2019-01-22T06:54:28.568Z,59.54
2019-01-22T06:55:28.494Z,59.26
2019-01-22T06:56:28.448Z,59.64
2019-01-22T06:57:28.418Z,61.05
2019-01-22T06:58:28.357Z,61.33
2019-01-22T06:59:28.308Z,63.89
2019-01-22T07:00:28.270Z,62.47
2019-01-22T07:01:28.219Z,62.28
2019-01-22T07:02:28.164Z,63.51
2019-01-22T07:03:28.125Z,64.17
2019-01-22T07:04:28.073Z,65.30
2019-01-22T07:05:28.025Z,65.39
2019-01-22T07:06:27.985Z,66.90
2019-01-22T07:07:27.935Z,66.15
2019-01-22T07:08:27.888Z,68.13
2019-01-22T07:09:27.846Z,68.13
2019-01-22T07:10:27.799Z,70.30
2019-01-22T07:11:27.758Z,71.43
2019-01-22T07:12:27.704Z,71.43
2019-01-22T07:13:27.659Z,71.06
2019-01-22T07:14:27.610Z,71.06
2019-01-22T07:15:27.561Z,71.91
2019-01-22T07:16:27.515Z,72.00
2019-01-22T07:17:27.467Z,72.56
2019-01-22T07:18:27.428Z,71.53
2019-01-22T07:19:27.379Z,72.85
2019-01-22T07:20:27.331Z,72.85
2019-01-22T07:21:27.288Z,72.47
2019-01-22T07:22:27.247Z,71.25
2019-01-22T07:23:27.194Z,71.34
2019-01-22T07:24:27.146Z,69.92
2019-01-22T07:25:27.106Z,68.32
2019-01-22T07:26:27.046Z,67.66
2019-01-22T07:27:27.002Z,68.32
2019-01-22T07:28:26.956Z,67.28
2019-01-22T07:29:26.908Z,66.15
2019-01-22T07:30:26.867Z,66.52
2019-01-22T07:31:26.819Z,68.13
2019-01-22T07:32:26.771Z,68.04
2019-01-22T07:33:26.730Z,68.79
2019-01-22T07:34:26.676Z,70.11
2019-01-22T07:35:26.628Z,70.02
2019-01-22T07:36:26.599Z,69.54
2019-01-22T07:37:26.533Z,69.26
2019-01-22T07:38:26.493Z,68.88
2019-01-22T07:39:26.446Z,70.58
2019-01-22T07:40:26.396Z,71.06
2019-01-22T07:41:26.351Z,70.49
2019-01-22T07:42:26.324Z,70.30
2019-01-22T07:43:26.264Z,72.38
2019-01-22T07:44:26.214Z,71.91
2019-01-22T07:45:26.166Z,71.15
2019-01-22T07:46:26.114Z,70.96
2019-01-22T07:47:26.076Z,73.79
2019-01-22T07:48:26.026Z,76.15
2019-01-22T07:49:25.975Z,78.79
2019-01-22T07:50:25.934Z,78.98
2019-01-22T07:51:25.883Z,79.17
2019-01-22T07:52:25.837Z,77.94
2019-01-22T07:53:25.792Z,79.46
2019-01-22T07:54:25.741Z,88.46
2019-01-22T07:55:25.705Z,88.09
2019-01-22T07:56:25.652Z,89.22
2019-01-22T07:57:25.607Z,88.93
2019-01-22T07:58:25.554Z,90.26
2019-01-22T07:59:25.508Z,92.71
2019-01-22T08:00:25.462Z,92.90
2019-01-22T08:01:25.417Z,93.47
2019-01-22T08:02:25.376Z,92.05
2019-01-22T08:03:25.414Z,89.97
2019-01-22T08:04:25.281Z,89.03
2019-01-22T08:05:25.234Z,88.37
2019-01-22T08:06:25.186Z,89.88
2019-01-22T08:07:25.137Z,90.82
2019-01-22T08:08:25.093Z,89.12
2019-01-22T08:09:25.042Z,89.40
2019-01-22T08:10:25.003Z,87.80
2019-01-22T08:11:24.953Z,88.75
2019-01-22T08:12:24.920Z,88.56
2019-01-22T08:13:24.860Z,87.33
2019-01-22T08:14:24.831Z,87.62
2019-01-22T08:15:24.770Z,88.09
2019-01-22T08:16:24.725Z,88.46
2019-01-22T08:17:24.679Z,90.07
2019-01-22T08:18:24.626Z,89.97
2019-01-22T08:19:24.580Z,88.84
2019-01-22T08:20:24.536Z,88.18
2019-01-22T08:21:24.487Z,89.78
2019-01-22T08:22:24.448Z,88.46
2019-01-22T08:23:24.398Z,89.78
2019-01-22T08:24:24.353Z,89.22
2019-01-22T08:25:24.307Z,88.09
2019-01-22T08:26:24.263Z,87.33
2019-01-22T08:27:24.223Z,86.38
2019-01-22T08:28:24.169Z,86.19
2019-01-22T08:29:24.123Z,87.71
2019-01-22T08:30:24.076Z,90.92
2019-01-22T08:31:24.025Z,89.12
2019-01-22T08:32:23.989Z,90.64
2019-01-22T08:33:23.931Z,91.58
2019-01-22T08:34:23.919Z,91.39
2019-01-22T08:35:23.844Z,90.82
2019-01-22T08:36:23.843Z,89.31
2019-01-22T08:37:23.755Z,91.20
2019-01-22T08:38:23.702Z,89.78
2019-01-22T08:39:23.658Z,90.92
2019-01-22T08:40:23.611Z,90.82
2019-01-22T08:41:23.566Z,91.11
2019-01-22T08:42:23.523Z,90.45
2019-01-22T08:43:23.477Z,90.82
2019-01-22T08:44:27.878Z,90.45
2019-01-22T08:45:23.401Z,94.60
2019-01-22T08:46:23.341Z,91.67
2019-01-22T08:47:23.314Z,94.03
2019-01-22T08:48:23.245Z,92.05
2019-01-22T08:49:23.201Z,93.75
2019-01-22T08:50:23.149Z,94.22
2019-01-22T08:51:23.105Z,93.18
2019-01-22T08:52:23.061Z,94.51
2019-01-22T08:53:23.011Z,92.99
2019-01-22T08:54:22.975Z,90.92
2019-01-22T08:55:22.922Z,88.09
2019-01-22T08:56:22.878Z,87.52
2019-01-22T08:57:22.834Z,87.33
2019-01-22T08:58:22.798Z,90.73
2019-01-22T08:59:22.741Z,90.82
2019-01-22T09:00:22.694Z,90.73
2019-01-22T09:01:22.655Z,91.58
2019-01-22T09:02:22.597Z,93.84
2019-01-22T09:03:22.583Z,94.22
2019-01-22T09:04:22.509Z,92.57
2019-01-22T09:05:22.463Z,91.34
2019-01-22T09:06:22.425Z,92.10
2019-01-22T09:07:22.371Z,93.23
2019-01-22T09:08:22.326Z,94.93
2019-01-22T09:09:22.283Z,96.35
2019-01-22T09:10:22.231Z,97.86
2019-01-22T09:11:22.209Z,97.01
2019-01-22T09:12:22.141Z,96.35
2019-01-22T09:13:22.094Z,97.01
2019-01-22T09:14:22.055Z,97.58
2019-01-22T09:15:22.010Z,98.24
2019-01-22T09:16:21.959Z,98.80
2019-01-22T09:17:21.912Z,96.44
2019-01-22T09:18:21.874Z,97.39
2019-01-22T09:19:21.824Z,98.52
2019-01-22T09:20:21.780Z,99.18
2019-01-22T09:21:21.738Z,99.65
2019-01-22T09:22:21.691Z,98.80
2019-01-22T09:23:21.640Z,97.96
2019-01-22T09:24:21.598Z,98.14
2019-01-22T09:25:21.550Z,97.20
2019-01-22T09:26:21.512Z,99.27
2019-01-22T09:27:21.460Z,98.99
2019-01-22T09:28:21.414Z,99.37
2019-01-22T09:29:22.432Z,99.27
2019-01-22T09:30:21.321Z,99.65
2019-01-22T09:31:21.277Z,98.80
2019-01-22T09:32:21.233Z,99.27
2019-01-22T09:33:21.201Z,98.05
2019-01-22T09:34:21.138Z,99.99
2019-01-22T09:35:21.096Z,99.99
2019-01-22T09:36:21.049Z,99.65
2019-01-22T09:37:21.003Z,97.67
2019-01-22T09:38:20.963Z,98.99
2019-01-22T09:39:20.916Z,96.25
2019-01-22T09:40:24.327Z,97.77
2019-01-22T09:41:20.828Z,97.29
2019-01-22T09:42:20.777Z,94.56
2019-01-22T09:43:20.730Z,97.01
2019-01-22T09:44:20.688Z,95.59
2019-01-22T09:45:20.640Z,96.44
2019-01-22T09:46:20.602Z,95.31
2019-01-22T09:47:20.552Z,94.37
2019-01-22T09:48:20.504Z,93.42
2019-01-22T09:49:20.457Z,94.46
2019-01-22T09:50:20.418Z,93.13
2019-01-22T09:51:20.370Z,90.77
2019-01-22T09:52:20.323Z,94.93
2019-01-22T09:53:20.282Z,93.23
2019-01-22T09:54:20.230Z,90.40
2019-01-22T09:55:22.579Z,92.85
2019-01-22T09:56:20.141Z,92.76
2019-01-22T09:57:20.095Z,92.29
2019-01-22T09:58:20.057Z,90.30
2019-01-22T09:59:20.008Z,89.83
2019-01-22T10:00:19.963Z,90.59
2019-01-22T10:01:19.919Z,90.21
2019-01-22T10:02:19.868Z,91.06
2019-01-22T10:03:19.826Z,90.11
2019-01-22T10:04:19.780Z,91.44
2019-01-22T10:05:19.742Z,90.96
2019-01-22T10:20:13.762Z,84.16
2019-01-22T10:21:13.685Z,85.30
2019-01-22T10:22:13.641Z,85.68
2019-01-22T10:23:14.102Z,84.92
2019-01-22T10:24:13.540Z,85.49
2019-01-22T10:25:13.506Z,83.50
2019-01-22T10:26:13.441Z,85.58
2019-01-22T10:27:13.398Z,85.77
2019-01-22T10:28:13.344Z,85.96
2019-01-22T10:29:13.300Z,85.58
2019-01-22T10:30:13.254Z,86.62
2019-01-22T10:31:13.209Z,87.28
2019-01-22T10:32:13.164Z,86.71
2019-01-22T10:33:13.117Z,88.23
2019-01-22T10:34:13.072Z,89.83
2019-01-22T10:35:13.019Z,90.40
2019-01-22T10:36:12.980Z,89.36
2019-01-22T10:37:12.931Z,89.54
2019-01-22T10:38:12.884Z,90.68
2019-01-22T10:39:12.843Z,90.44
2019-01-22T10:40:12.791Z,89.59
2019-01-22T10:41:12.750Z,90.63
2019-01-22T10:42:12.701Z,92.24
2019-01-22T10:43:12.652Z,91.39
2019-01-22T10:44:12.617Z,91.77
2019-01-22T10:45:12.565Z,94.03
2019-01-22T10:46:12.520Z,96.30
2019-01-22T10:47:12.476Z,96.11
2019-01-22T10:48:12.433Z,92.90
2019-01-22T10:49:12.381Z,89.78
2019-01-22T10:50:12.340Z,92.99
2019-01-22T10:51:12.294Z,94.70
2019-01-22T10:52:12.241Z,94.98
2019-01-22T10:53:12.199Z,94.13
2019-01-22T10:54:12.154Z,94.70
2019-01-22T10:55:12.108Z,96.30
2019-01-22T10:56:12.066Z,97.25
2019-01-22T10:57:12.020Z,95.07
2019-01-22T10:58:11.975Z,98.66
2019-01-22T10:59:11.933Z,96.49
2019-01-22T11:00:11.880Z,96.30
2019-01-22T11:01:11.835Z,97.25
2019-01-22T11:02:11.791Z,96.02
2019-01-22T11:03:11.743Z,96.21
2019-01-22T11:04:11.707Z,97.53
2019-01-22T11:05:11.659Z,96.59
2019-01-22T11:06:11.611Z,95.83
2019-01-22T11:07:11.563Z,96.11
2019-01-22T11:08:11.527Z,94.03
2019-01-22T11:09:11.475Z,95.07
2019-01-22T11:10:11.432Z,95.17
2019-01-22T11:11:11.388Z,95.45
2019-01-22T11:12:11.337Z,95.45
2019-01-22T11:13:11.295Z,94.60
2019-01-22T11:14:11.250Z,94.79
2019-01-22T11:15:11.204Z,94.89
2019-01-22T11:16:11.163Z,93.94
2019-01-22T11:17:11.121Z,94.79
2019-01-22T11:18:11.073Z,95.17
2019-01-22T11:19:11.031Z,95.07
2019-01-22T11:20:10.979Z,96.11
2019-01-22T11:21:10.934Z,94.79
2019-01-22T11:22:10.891Z,95.17
2019-01-22T11:23:10.851Z,95.54
2019-01-22T11:24:10.799Z,95.26
2019-01-22T11:25:10.753Z,95.36
2019-01-22T11:26:10.711Z,95.07
2019-01-22T11:27:10.660Z,93.56
2019-01-22T11:28:10.623Z,96.78
2019-01-22T11:29:10.573Z,95.17
2019-01-22T11:30:10.529Z,95.07
2019-01-22T11:31:10.486Z,95.36
2019-01-22T11:32:10.435Z,94.98
2019-01-22T11:33:10.390Z,94.22
2019-01-22T11:34:10.354Z,93.37
2019-01-22T11:35:10.302Z,96.40
2019-01-22T11:36:10.259Z,95.36
2019-01-22T11:37:10.213Z,94.79
2019-01-22T11:38:12.751Z,95.17
2019-01-22T11:39:10.120Z,95.36
2019-01-22T11:40:10.080Z,94.79
2019-01-22T11:41:10.033Z,95.45
2019-01-22T11:42:09.990Z,94.79
2019-01-22T11:43:09.945Z,93.66
2019-01-22T11:44:09.892Z,93.66
2019-01-22T11:45:09.849Z,94.79
2019-01-22T11:46:09.806Z,97.25
2019-01-22T11:47:09.758Z,94.89
2019-01-22T11:48:09.721Z,95.36
2019-01-22T11:49:09.680Z,95.92
2019-01-22T11:50:09.627Z,94.41
2019-01-22T11:51:09.586Z,93.75
2019-01-22T11:52:09.531Z,93.18
2019-01-22T11:53:09.489Z,94.13
2019-01-22T11:54:09.449Z,94.79
2019-01-22T11:55:09.404Z,93.47
2019-01-22T11:56:09.353Z,94.22
2019-01-22T11:57:09.311Z,93.47
2019-01-22T11:58:09.289Z,92.33
2019-01-22T11:59:09.218Z,91.96
2019-01-22T12:00:09.179Z,90.82
2019-01-22T12:01:09.133Z,89.87
2019-01-22T12:02:09.089Z,91.10
2019-01-22T12:03:09.044Z,89.22
2019-01-22T12:04:08.993Z,90.35
2019-01-22T12:05:08.951Z,91.96
2019-01-22T12:06:08.906Z,90.35
2019-01-22T12:07:08.859Z,89.97
2019-01-22T12:08:08.819Z,89.87
2019-01-22T12:09:08.774Z,87.70
2019-01-22T12:10:08.732Z,87.23
2019-01-22T12:11:08.684Z,87.32
2019-01-22T12:12:08.644Z,88.46
2019-01-22T12:13:08.593Z,88.17
2019-01-22T12:14:08.548Z,89.12
2019-01-22T12:15:08.507Z,87.61
2019-01-22T12:16:08.456Z,88.93
2019-01-22T12:17:08.415Z,88.08
2019-01-22T12:18:08.367Z,88.65
2019-01-22T12:19:08.321Z,88.36
2019-01-22T12:20:08.282Z,89.97
2019-01-22T12:21:08.236Z,88.27
2019-01-22T12:22:08.191Z,88.55
2019-01-22T12:23:08.148Z,87.32
2019-01-22T12:24:08.097Z,87.70
2019-01-22T12:25:08.050Z,89.78
2019-01-22T12:26:08.013Z,89.97
2019-01-22T12:27:07.972Z,89.22
2019-01-22T12:28:07.920Z,90.54
2019-01-22T12:29:07.881Z,94.22
2019-01-22T12:30:07.832Z,98.19
2019-01-22T12:31:07.782Z,96.21
2019-01-22T12:32:07.802Z,96.68
2019-01-22T12:33:07.705Z,98.00
2019-01-22T12:34:07.653Z,96.11
2019-01-22T12:35:07.605Z,95.07
2019-01-22T12:36:07.571Z,97.25
2019-01-22T12:37:07.520Z,96.40
2019-01-22T12:38:07.481Z,94.89
2019-01-22T12:39:07.437Z,96.30
2019-01-22T12:40:07.385Z,95.45
2019-01-22T12:41:07.349Z,96.49
2019-01-22T12:42:07.297Z,95.07
2019-01-22T12:43:07.250Z,94.22
2019-01-22T12:44:07.206Z,96.59
2019-01-22T12:45:07.155Z,95.26
2019-01-22T12:46:07.113Z,94.51
2019-01-22T12:47:07.068Z,96.59
2019-01-22T12:48:07.027Z,94.41
2019-01-22T12:49:06.983Z,92.05
2019-01-22T12:50:06.941Z,93.28
2019-01-22T12:51:06.893Z,94.22
2019-01-22T12:52:06.843Z,93.28
2019-01-22T12:53:06.803Z,93.47
2019-01-22T12:54:06.752Z,93.66
2019-01-22T12:55:06.710Z,92.90
2019-01-22T12:56:06.667Z,90.82
2019-01-22T12:57:06.623Z,94.22
2019-01-22T12:58:06.573Z,92.71
2019-01-22T12:59:06.530Z,91.48
2019-01-22T13:00:06.489Z,89.40
2019-01-22T13:01:06.443Z,91.01
2019-01-22T13:02:06.406Z,90.35
2019-01-22T13:03:06.352Z,91.10
2019-01-22T13:04:06.303Z,90.63
2019-01-22T13:05:06.259Z,91.01
2019-01-22T13:06:06.213Z,90.73
2019-01-22T13:07:06.185Z,91.29
2019-01-22T13:08:06.129Z,88.08
2019-01-22T13:09:06.087Z,91.29
2019-01-22T13:10:06.039Z,91.01
2019-01-22T13:11:05.994Z,90.44
2019-01-22T13:12:05.947Z,89.12
2019-01-22T13:13:05.900Z,89.31
2019-01-22T13:14:05.861Z,90.44
2019-01-22T13:15:05.813Z,89.87
2019-01-22T13:16:05.771Z,87.79
2019-01-22T13:17:05.723Z,87.42
2019-01-22T13:18:05.676Z,88.08
2019-01-22T13:19:05.631Z,89.22
2019-01-22T13:20:05.589Z,86.19
2019-01-22T13:21:05.547Z,87.61